sensor_id;sensor_type;location;lat;lon;timestamp;temperature;humidity
5705;DHT22;2877;48.238;11.160;2022-10-17T00:01:01;12.00;99.90
5705;DHT22;2877;48.238;11.160;2022-10-17T00:03:27;12.00;99.90
5705;DHT22;2877;48.238;11.160;2022-10-17T00:05:52;12.00;99.90
5705;DHT22;2877;48.238;11.160;2022-10-17T00:08:18;12.00;99.90
5705;DHT22;2877;48.238;11.160;2022-10-17T00:10:45;12.00;99.90
5705;DHT22;2877;48.238;11.160;2022-10-17T00:13:19;12.00;99.90
5705;DHT22;2877;48.238;11.160;2022-10-17T00:15:45;12.00;99.90
5705;DHT22;2877;48.238;11.160;2022-10-17T00:18:10;12.00;99.90
5705;DHT22;2877;48.238;11.160;2022-10-17T00:20:36;12.00;99.90
5705;DHT22;2877;48.238;11.160;2022-10-17T00:23:01;12.00;99.90
5705;DHT22;2877;48.238;11.160;2022-10-17T00:25:27;12.00;99.90
5705;DHT22;2877;48.238;11.160;2022-10-17T00:27:52;11.90;99.90
5705;DHT22;2877;48.238;11.160;2022-10-17T00:30:18;11.90;99.90
5705;DHT22;2877;48.238;11.160;2022-10-17T00:32:44;11.90;99.90
5705;DHT22;2877;48.238;11.160;2022-10-17T00:35:09;11.90;99.90
5705;DHT22;2877;48.238;11.160;2022-10-17T00:37:35;11.90;99.90
5705;DHT22;2877;48.238;11.160;2022-10-17T00:40:02;11.90;99.90
5705;DHT22;2877;48.238;11.160;2022-10-17T00:42:27;12.00;99.90
5705;DHT22;2877;48.238;11.160;2022-10-17T00:44:59;12.00;99.90
5705;DHT22;2877;48.238;11.160;2022-10-17T00:47:25;12.00;99.90
5705;DHT22;2877;48.238;11.160;2022-10-17T00:49:52;12.00;99.90
5705;DHT22;2877;48.238;11.160;2022-10-17T00:52:21;12.00;99.90
5705;DHT22;2877;48.238;11.160;2022-10-17T00:54:56;12.00;99.90
5705;DHT22;2877;48.238;11.160;2022-10-17T00:57:23;12.00;99.90
5705;DHT22;2877;48.238;11.160;2022-10-17T00:59:51;12.00;99.90
5705;DHT22;2877;48.238;11.160;2022-10-17T01:02:19;11.90;99.90
5705;DHT22;2877;48.238;11.160;2022-10-17T01:04:47;11.80;99.90
5705;DHT22;2877;48.238;11.160;2022-10-17T01:07:14;11.70;99.90
5705;DHT22;2877;48.238;11.160;2022-10-17T01:09:40;11.70;99.90
5705;DHT22;2877;48.238;11.160;2022-10-17T01:31:17;11.40;99.90
5705;DHT22;2877;48.238;11.160;2022-10-17T01:34:00;11.30;99.90
5705;DHT22;2877;48.238;11.160;2022-10-17T01:41:50;11.40;99.90
5705;DHT22;2877;48.238;11.160;2022-10-17T01:44:26;11.50;99.90
5705;DHT22;2877;48.238;11.160;2022-10-17T01:47:20;11.40;99.90
5705;DHT22;2877;48.238;11.160;2022-10-17T01:49:49;11.40;99.90
5705;DHT22;2877;48.238;11.160;2022-10-17T01:52:21;11.50;99.90
5705;DHT22;2877;48.238;11.160;2022-10-17T01:54:57;11.40;99.90
5705;DHT22;2877;48.238;11.160;2022-10-17T01:57:35;11.30;99.90
5705;DHT22;2877;48.238;11.160;2022-10-17T02:00:04;11.30;99.90
5705;DHT22;2877;48.238;11.160;2022-10-17T02:02:31;11.10;99.90
5705;DHT22;2877;48.238;11.160;2022-10-17T02:04:57;11.00;99.90
5705;DHT22;2877;48.238;11.160;2022-10-17T02:07:24;10.90;99.90
5705;DHT22;2877;48.238;11.160;2022-10-17T02:09:49;10.80;99.90
5705;DHT22;2877;48.238;11.160;2022-10-17T02:17:47;10.70;99.90
5705;DHT22;2877;48.238;11.160;2022-10-17T02:20:30;10.60;99.90
5705;DHT22;2877;48.238;11.160;2022-10-17T02:26:18;10.70;99.90
5705;DHT22;2877;48.238;11.160;2022-10-17T02:31:30;10.60;99.90
5705;DHT22;2877;48.238;11.160;2022-10-17T02:34:01;10.60;99.90
5705;DHT22;2877;48.238;11.160;2022-10-17T02:36:41;10.50;99.90
5705;DHT22;2877;48.238;11.160;2022-10-17T02:39:08;10.50;99.90
5705;DHT22;2877;48.238;11.160;2022-10-17T02:41:37;10.40;99.90
5705;DHT22;2877;48.238;11.160;2022-10-17T02:44:05;10.30;99.90
5705;DHT22;2877;48.238;11.160;2022-10-17T02:46:32;10.30;99.90
5705;DHT22;2877;48.238;11.160;2022-10-17T02:51:44;10.20;99.90
5705;DHT22;2877;48.238;11.160;2022-10-17T02:54:18;10.20;99.90
5705;DHT22;2877;48.238;11.160;2022-10-17T02:57:09;10.20;99.90
5705;DHT22;2877;48.238;11.160;2022-10-17T02:59:35;10.10;99.90
5705;DHT22;2877;48.238;11.160;2022-10-17T03:02:05;10.10;99.90
5705;DHT22;2877;48.238;11.160;2022-10-17T03:04:31;10.10;99.90
5705;DHT22;2877;48.238;11.160;2022-10-17T03:06:56;10.00;99.90
5705;DHT22;2877;48.238;11.160;2022-10-17T03:09:22;10.00;99.90
5705;DHT22;2877;48.238;11.160;2022-10-17T03:11:47;10.00;99.90
5705;DHT22;2877;48.238;11.160;2022-10-17T03:14:13;10.00;99.90
5705;DHT22;2877;48.238;11.160;2022-10-17T03:16:38;10.00;99.90
5705;DHT22;2877;48.238;11.160;2022-10-17T03:19:04;10.10;99.90
5705;DHT22;2877;48.238;11.160;2022-10-17T03:21:30;10.10;99.90
5705;DHT22;2877;48.238;11.160;2022-10-17T03:23:55;10.10;99.90
5705;DHT22;2877;48.238;11.160;2022-10-17T03:26:21;10.10;99.90
5705;DHT22;2877;48.238;11.160;2022-10-17T03:28:46;10.10;99.90
5705;DHT22;2877;48.238;11.160;2022-10-17T03:31:14;10.00;99.90
5705;DHT22;2877;48.238;11.160;2022-10-17T03:33:40;9.90;99.90
5705;DHT22;2877;48.238;11.160;2022-10-17T03:36:11;9.90;99.90
5705;DHT22;2877;48.238;11.160;2022-10-17T03:38:37;9.80;99.90
5705;DHT22;2877;48.238;11.160;2022-10-17T03:41:04;9.80;99.90
5705;DHT22;2877;48.238;11.160;2022-10-17T03:43:30;9.70;99.90
5705;DHT22;2877;48.238;11.160;2022-10-17T03:45:56;9.70;99.90
5705;DHT22;2877;48.238;11.160;2022-10-17T03:48:23;9.70;99.90
5705;DHT22;2877;48.238;11.160;2022-10-17T03:50:49;9.60;99.90
5705;DHT22;2877;48.238;11.160;2022-10-17T03:53:14;9.60;99.90
5705;DHT22;2877;48.238;11.160;2022-10-17T03:55:40;9.60;99.90
5705;DHT22;2877;48.238;11.160;2022-10-17T03:58:05;9.60;99.90
5705;DHT22;2877;48.238;11.160;2022-10-17T04:00:31;9.60;99.90
5705;DHT22;2877;48.238;11.160;2022-10-17T04:02:57;9.50;99.90
5705;DHT22;2877;48.238;11.160;2022-10-17T04:05:23;9.50;99.90
5705;DHT22;2877;48.238;11.160;2022-10-17T04:07:49;9.50;99.90
5705;DHT22;2877;48.238;11.160;2022-10-17T04:10:14;9.50;99.90
5705;DHT22;2877;48.238;11.160;2022-10-17T04:12:40;9.40;99.90
5705;DHT22;2877;48.238;11.160;2022-10-17T04:15:06;9.50;99.90
5705;DHT22;2877;48.238;11.160;2022-10-17T04:17:32;9.50;99.90
5705;DHT22;2877;48.238;11.160;2022-10-17T04:19:57;9.40;99.90
5705;DHT22;2877;48.238;11.160;2022-10-17T04:22:23;9.40;99.90
5705;DHT22;2877;48.238;11.160;2022-10-17T04:24:49;9.30;99.90
5705;DHT22;2877;48.238;11.160;2022-10-17T04:27:14;9.30;99.90
5705;DHT22;2877;48.238;11.160;2022-10-17T04:29:40;9.30;99.90
5705;DHT22;2877;48.238;11.160;2022-10-17T04:32:06;9.30;99.90
5705;DHT22;2877;48.238;11.160;2022-10-17T04:34:31;9.20;99.90
5705;DHT22;2877;48.238;11.160;2022-10-17T04:36:57;9.30;99.90
5705;DHT22;2877;48.238;11.160;2022-10-17T04:39:22;9.40;99.90
5705;DHT22;2877;48.238;11.160;2022-10-17T04:41:48;9.50;99.90
5705;DHT22;2877;48.238;11.160;2022-10-17T04:44:14;9.50;99.90
5705;DHT22;2877;48.238;11.160;2022-10-17T04:46:39;9.50;99.90
5705;DHT22;2877;48.238;11.160;2022-10-17T04:49:05;9.50;99.90
5705;DHT22;2877;48.238;11.160;2022-10-17T04:51:30;9.40;99.90
5705;DHT22;2877;48.238;11.160;2022-10-17T04:53:56;9.30;99.90
5705;DHT22;2877;48.238;11.160;2022-10-17T04:56:23;9.30;99.90
5705;DHT22;2877;48.238;11.160;2022-10-17T04:58:49;9.30;99.90
5705;DHT22;2877;48.238;11.160;2022-10-17T05:01:20;9.30;99.90
5705;DHT22;2877;48.238;11.160;2022-10-17T05:03:46;9.30;99.90
5705;DHT22;2877;48.238;11.160;2022-10-17T05:06:18;9.30;99.90
5705;DHT22;2877;48.238;11.160;2022-10-17T05:08:45;9.30;99.90
5705;DHT22;2877;48.238;11.160;2022-10-17T05:11:25;9.40;99.90
5705;DHT22;2877;48.238;11.160;2022-10-17T05:13:56;9.40;99.90
5705;DHT22;2877;48.238;11.160;2022-10-17T05:16:23;9.40;99.90
5705;DHT22;2877;48.238;11.160;2022-10-17T05:18:51;9.50;99.90
5705;DHT22;2877;48.238;11.160;2022-10-17T05:21:17;9.50;99.90
5705;DHT22;2877;48.238;11.160;2022-10-17T05:23:44;9.50;99.90
5705;DHT22;2877;48.238;11.160;2022-10-17T05:26:10;9.40;99.90
5705;DHT22;2877;48.238;11.160;2022-10-17T05:28:35;9.30;99.90
5705;DHT22;2877;48.238;11.160;2022-10-17T05:31:02;9.30;99.90
5705;DHT22;2877;48.238;11.160;2022-10-17T05:33:28;9.30;99.90
5705;DHT22;2877;48.238;11.160;2022-10-17T05:35:54;9.30;99.90
5705;DHT22;2877;48.238;11.160;2022-10-17T05:38:19;9.30;99.90
5705;DHT22;2877;48.238;11.160;2022-10-17T05:40:45;9.30;99.90
5705;DHT22;2877;48.238;11.160;2022-10-17T05:43:10;9.20;99.90
5705;DHT22;2877;48.238;11.160;2022-10-17T05:45:36;9.30;99.90
5705;DHT22;2877;48.238;11.160;2022-10-17T05:48:02;9.30;99.90
5705;DHT22;2877;48.238;11.160;2022-10-17T05:50:27;9.30;99.90
5705;DHT22;2877;48.238;11.160;2022-10-17T05:52:54;9.30;99.90
5705;DHT22;2877;48.238;11.160;2022-10-17T05:55:19;9.30;99.90
5705;DHT22;2877;48.238;11.160;2022-10-17T05:57:45;9.30;99.90
5705;DHT22;2877;48.238;11.160;2022-10-17T06:00:11;9.30;99.90
5705;DHT22;2877;48.238;11.160;2022-10-17T06:02:37;9.30;99.90
5705;DHT22;2877;48.238;11.160;2022-10-17T06:05:02;9.30;99.90
5705;DHT22;2877;48.238;11.160;2022-10-17T06:07:28;9.20;99.90
5705;DHT22;2877;48.238;11.160;2022-10-17T06:09:53;9.30;99.90
5705;DHT22;2877;48.238;11.160;2022-10-17T06:12:19;9.30;99.90
5705;DHT22;2877;48.238;11.160;2022-10-17T06:14:44;9.30;99.90
5705;DHT22;2877;48.238;11.160;2022-10-17T06:17:10;9.30;99.90
5705;DHT22;2877;48.238;11.160;2022-10-17T06:19:36;9.30;99.90
5705;DHT22;2877;48.238;11.160;2022-10-17T06:22:01;9.40;99.90
5705;DHT22;2877;48.238;11.160;2022-10-17T06:24:27;9.50;99.90
5705;DHT22;2877;48.238;11.160;2022-10-17T06:26:52;9.50;99.90
5705;DHT22;2877;48.238;11.160;2022-10-17T06:29:18;9.50;99.90
5705;DHT22;2877;48.238;11.160;2022-10-17T06:31:44;9.50;99.90
5705;DHT22;2877;48.238;11.160;2022-10-17T06:34:09;9.60;99.90
5705;DHT22;2877;48.238;11.160;2022-10-17T06:36:35;9.60;99.90
5705;DHT22;2877;48.238;11.160;2022-10-17T06:39:00;9.60;99.90
5705;DHT22;2877;48.238;11.160;2022-10-17T06:41:26;9.60;99.90
5705;DHT22;2877;48.238;11.160;2022-10-17T06:43:52;9.70;99.90
5705;DHT22;2877;48.238;11.160;2022-10-17T06:46:18;9.80;99.90
5705;DHT22;2877;48.238;11.160;2022-10-17T06:48:44;9.90;99.90
5705;DHT22;2877;48.238;11.160;2022-10-17T06:51:10;10.00;99.90
5705;DHT22;2877;48.238;11.160;2022-10-17T06:53:37;10.10;99.90
5705;DHT22;2877;48.238;11.160;2022-10-17T06:56:05;10.20;99.90
5705;DHT22;2877;48.238;11.160;2022-10-17T06:58:33;10.30;99.90
5705;DHT22;2877;48.238;11.160;2022-10-17T07:01:04;10.40;99.90
5705;DHT22;2877;48.238;11.160;2022-10-17T07:03:30;10.40;99.90
5705;DHT22;2877;48.238;11.160;2022-10-17T07:05:56;10.40;99.90
5705;DHT22;2877;48.238;11.160;2022-10-17T07:08:22;10.60;99.90
5705;DHT22;2877;48.238;11.160;2022-10-17T07:10:49;10.70;99.90
5705;DHT22;2877;48.238;11.160;2022-10-17T07:13:14;10.80;99.90
5705;DHT22;2877;48.238;11.160;2022-10-17T07:15:40;10.90;99.90
5705;DHT22;2877;48.238;11.160;2022-10-17T07:18:06;11.00;99.90
5705;DHT22;2877;48.238;11.160;2022-10-17T07:20:31;11.10;99.90
5705;DHT22;2877;48.238;11.160;2022-10-17T07:22:57;11.20;99.90
5705;DHT22;2877;48.238;11.160;2022-10-17T07:25:23;11.30;99.90
5705;DHT22;2877;48.238;11.160;2022-10-17T07:27:49;11.50;99.90
5705;DHT22;2877;48.238;11.160;2022-10-17T07:30:15;11.70;99.90
5705;DHT22;2877;48.238;11.160;2022-10-17T07:32:41;11.90;99.90
5705;DHT22;2877;48.238;11.160;2022-10-17T07:35:08;12.10;99.90
5705;DHT22;2877;48.238;11.160;2022-10-17T07:37:34;12.30;99.90
5705;DHT22;2877;48.238;11.160;2022-10-17T07:40:00;12.50;99.90
5705;DHT22;2877;48.238;11.160;2022-10-17T07:42:26;12.60;99.90
5705;DHT22;2877;48.238;11.160;2022-10-17T07:44:53;12.80;99.90
5705;DHT22;2877;48.238;11.160;2022-10-17T07:47:19;13.00;99.90
5705;DHT22;2877;48.238;11.160;2022-10-17T07:49:44;13.10;99.90
5705;DHT22;2877;48.238;11.160;2022-10-17T07:52:11;13.30;99.90
5705;DHT22;2877;48.238;11.160;2022-10-17T07:54:37;13.50;99.90
5705;DHT22;2877;48.238;11.160;2022-10-17T07:57:03;13.70;99.90
5705;DHT22;2877;48.238;11.160;2022-10-17T07:59:29;13.80;99.90
5705;DHT22;2877;48.238;11.160;2022-10-17T08:01:55;14.00;99.90
5705;DHT22;2877;48.238;11.160;2022-10-17T08:04:20;14.10;99.90
5705;DHT22;2877;48.238;11.160;2022-10-17T08:06:46;14.30;99.90
5705;DHT22;2877;48.238;11.160;2022-10-17T08:09:12;14.40;99.90
5705;DHT22;2877;48.238;11.160;2022-10-17T08:11:37;14.50;99.90
5705;DHT22;2877;48.238;11.160;2022-10-17T08:14:03;14.60;99.90
5705;DHT22;2877;48.238;11.160;2022-10-17T08:16:29;14.70;99.90
5705;DHT22;2877;48.238;11.160;2022-10-17T08:18:54;14.80;99.90
5705;DHT22;2877;48.238;11.160;2022-10-17T08:21:20;15.00;99.90
5705;DHT22;2877;48.238;11.160;2022-10-17T08:23:45;15.10;99.90
5705;DHT22;2877;48.238;11.160;2022-10-17T08:26:12;15.30;99.90
5705;DHT22;2877;48.238;11.160;2022-10-17T08:28:41;15.30;99.90
5705;DHT22;2877;48.238;11.160;2022-10-17T08:31:12;15.40;99.90
5705;DHT22;2877;48.238;11.160;2022-10-17T08:33:39;15.40;99.90
5705;DHT22;2877;48.238;11.160;2022-10-17T08:36:06;15.60;99.90
5705;DHT22;2877;48.238;11.160;2022-10-17T08:38:33;15.70;99.90
5705;DHT22;2877;48.238;11.160;2022-10-17T08:41:00;15.80;99.90
5705;DHT22;2877;48.238;11.160;2022-10-17T08:46:01;16.00;99.90
5705;DHT22;2877;48.238;11.160;2022-10-17T08:48:30;16.10;99.90
5705;DHT22;2877;48.238;11.160;2022-10-17T08:51:01;16.20;99.90
5705;DHT22;2877;48.238;11.160;2022-10-17T08:54:09;16.30;99.90
5705;DHT22;2877;48.238;11.160;2022-10-17T08:56:33;16.50;99.90
5705;DHT22;2877;48.238;11.160;2022-10-17T08:59:06;16.70;99.90
5705;DHT22;2877;48.238;11.160;2022-10-17T09:01:49;16.70;99.90
5705;DHT22;2877;48.238;11.160;2022-10-17T09:15:15;17.30;99.90
5705;DHT22;2877;48.238;11.160;2022-10-17T09:18:48;17.40;99.90
5705;DHT22;2877;48.238;11.160;2022-10-17T09:20:51;17.40;99.90
5705;DHT22;2877;48.238;11.160;2022-10-17T09:23:30;17.50;99.90
5705;DHT22;2877;48.238;11.160;2022-10-17T09:25:59;17.60;99.90
5705;DHT22;2877;48.238;11.160;2022-10-17T09:28:37;17.70;99.90
5705;DHT22;2877;48.238;11.160;2022-10-17T09:33:38;18.00;99.90
5705;DHT22;2877;48.238;11.160;2022-10-17T09:36:10;18.10;99.90
5705;DHT22;2877;48.238;11.160;2022-10-17T09:38:40;18.20;99.90
5705;DHT22;2877;48.238;11.160;2022-10-17T09:41:14;18.30;99.90
5705;DHT22;2877;48.238;11.160;2022-10-17T09:43:40;18.40;99.90
5705;DHT22;2877;48.238;11.160;2022-10-17T09:48:41;18.40;99.90
5705;DHT22;2877;48.238;11.160;2022-10-17T09:51:08;18.50;99.90
5705;DHT22;2877;48.238;11.160;2022-10-17T09:53:37;18.60;99.90
5705;DHT22;2877;48.238;11.160;2022-10-17T09:56:16;18.70;99.90
5705;DHT22;2877;48.238;11.160;2022-10-17T09:58:44;18.90;99.90
5705;DHT22;2877;48.238;11.160;2022-10-17T10:01:28;18.90;99.90
5705;DHT22;2877;48.238;11.160;2022-10-17T10:04:14;19.00;99.90
5705;DHT22;2877;48.238;11.160;2022-10-17T10:06:59;19.10;99.90
5705;DHT22;2877;48.238;11.160;2022-10-17T10:09:29;19.10;99.90
5705;DHT22;2877;48.238;11.160;2022-10-17T10:11:56;19.10;99.90
5705;DHT22;2877;48.238;11.160;2022-10-17T10:16:54;19.30;99.90
5705;DHT22;2877;48.238;11.160;2022-10-17T10:19:36;19.30;99.90
5705;DHT22;2877;48.238;11.160;2022-10-17T10:22:04;19.30;99.90
5705;DHT22;2877;48.238;11.160;2022-10-17T10:24:31;19.40;99.90
5705;DHT22;2877;48.238;11.160;2022-10-17T10:27:00;19.40;99.90
5705;DHT22;2877;48.238;11.160;2022-10-17T10:35:07;19.80;99.90
5705;DHT22;2877;48.238;11.160;2022-10-17T10:37:47;19.80;99.90
5705;DHT22;2877;48.238;11.160;2022-10-17T10:40:15;19.90;99.90
5705;DHT22;2877;48.238;11.160;2022-10-17T10:42:46;20.00;99.90
5705;DHT22;2877;48.238;11.160;2022-10-17T10:45:17;20.00;99.90
5705;DHT22;2877;48.238;11.160;2022-10-17T10:53:37;20.30;99.90
5705;DHT22;2877;48.238;11.160;2022-10-17T10:55:46;20.50;99.90
5705;DHT22;2877;48.238;11.160;2022-10-17T11:00:53;20.60;99.90
5705;DHT22;2877;48.238;11.160;2022-10-17T11:03:27;20.50;99.90
5705;DHT22;2877;48.238;11.160;2022-10-17T11:12:00;20.90;99.90
5705;DHT22;2877;48.238;11.160;2022-10-17T11:17:42;21.10;99.90
5705;DHT22;2877;48.238;11.160;2022-10-17T11:20:24;21.00;99.90
5705;DHT22;2877;48.238;11.160;2022-10-17T11:25:36;21.20;99.90
5705;DHT22;2877;48.238;11.160;2022-10-17T11:28:07;21.20;99.90
5705;DHT22;2877;48.238;11.160;2022-10-17T11:30:45;21.30;99.90
5705;DHT22;2877;48.238;11.160;2022-10-17T11:33:17;21.50;99.90
5705;DHT22;2877;48.238;11.160;2022-10-17T11:35:45;21.70;99.90
5705;DHT22;2877;48.238;11.160;2022-10-17T11:38:46;21.70;99.90
5705;DHT22;2877;48.238;11.160;2022-10-17T11:41:30;21.70;99.40
5705;DHT22;2877;48.238;11.160;2022-10-17T11:44:34;21.80;99.10
5705;DHT22;2877;48.238;11.160;2022-10-17T11:53:11;22.00;99.90
5705;DHT22;2877;48.238;11.160;2022-10-17T11:55:35;22.10;98.80
5705;DHT22;2877;48.238;11.160;2022-10-17T11:58:38;22.20;97.20
5705;DHT22;2877;48.238;11.160;2022-10-17T12:01:17;22.20;97.60
5705;DHT22;2877;48.238;11.160;2022-10-17T12:07:13;22.70;96.70
5705;DHT22;2877;48.238;11.160;2022-10-17T12:09:53;22.70;96.60
5705;DHT22;2877;48.238;11.160;2022-10-17T12:12:29;22.70;96.30
5705;DHT22;2877;48.238;11.160;2022-10-17T12:17:53;22.80;96.10
5705;DHT22;2877;48.238;11.160;2022-10-17T12:22:49;22.90;95.50
5705;DHT22;2877;48.238;11.160;2022-10-17T12:25:31;23.00;95.60
5705;DHT22;2877;48.238;11.160;2022-10-17T12:28:16;23.10;96.10
5705;DHT22;2877;48.238;11.160;2022-10-17T12:33:46;23.10;97.60
5705;DHT22;2877;48.238;11.160;2022-10-17T12:38:46;23.20;93.90
5705;DHT22;2877;48.238;11.160;2022-10-17T12:41:11;22.90;94.10
5705;DHT22;2877;48.238;11.160;2022-10-17T12:43:51;22.90;94.10
5705;DHT22;2877;48.238;11.160;2022-10-17T12:54:53;23.60;93.30
5705;DHT22;2877;48.238;11.160;2022-10-17T12:57:40;23.90;92.90
5705;DHT22;2877;48.238;11.160;2022-10-17T13:02:38;23.50;91.80
5705;DHT22;2877;48.238;11.160;2022-10-17T13:05:10;23.20;92.00
5705;DHT22;2877;48.238;11.160;2022-10-17T13:07:40;23.10;93.60
5705;DHT22;2877;48.238;11.160;2022-10-17T13:10:18;23.00;93.30
5705;DHT22;2877;48.238;11.160;2022-10-17T13:12:44;22.90;92.00
5705;DHT22;2877;48.238;11.160;2022-10-17T13:15:14;22.90;93.30
5705;DHT22;2877;48.238;11.160;2022-10-17T13:17:40;22.90;94.50
5705;DHT22;2877;48.238;11.160;2022-10-17T13:20:18;22.80;93.20
5705;DHT22;2877;48.238;11.160;2022-10-17T13:22:44;22.80;92.50
5705;DHT22;2877;48.238;11.160;2022-10-17T13:25:16;22.70;91.70
5705;DHT22;2877;48.238;11.160;2022-10-17T13:27:42;22.60;92.70
5705;DHT22;2877;48.238;11.160;2022-10-17T13:30:27;22.60;91.90
5705;DHT22;2877;48.238;11.160;2022-10-17T13:32:54;22.60;93.50
5705;DHT22;2877;48.238;11.160;2022-10-17T13:35:37;22.60;93.10
5705;DHT22;2877;48.238;11.160;2022-10-17T13:38:05;22.60;93.80
5705;DHT22;2877;48.238;11.160;2022-10-17T13:40:41;22.60;93.70
5705;DHT22;2877;48.238;11.160;2022-10-17T13:43:17;22.70;94.50
5705;DHT22;2877;48.238;11.160;2022-10-17T13:45:56;22.70;95.20
5705;DHT22;2877;48.238;11.160;2022-10-17T13:48:26;22.70;95.10
5705;DHT22;2877;48.238;11.160;2022-10-17T13:51:00;22.80;94.50
5705;DHT22;2877;48.238;11.160;2022-10-17T13:53:39;22.90;93.20
5705;DHT22;2877;48.238;11.160;2022-10-17T13:56:26;22.90;93.80
5705;DHT22;2877;48.238;11.160;2022-10-17T13:58:56;22.80;92.10
5705;DHT22;2877;48.238;11.160;2022-10-17T14:01:25;22.70;92.80
5705;DHT22;2877;48.238;11.160;2022-10-17T14:03:51;22.70;93.70
5705;DHT22;2877;48.238;11.160;2022-10-17T14:06:23;22.70;91.90
5705;DHT22;2877;48.238;11.160;2022-10-17T14:08:59;22.60;91.60
5705;DHT22;2877;48.238;11.160;2022-10-17T14:11:36;22.50;91.40
5705;DHT22;2877;48.238;11.160;2022-10-17T14:14:03;22.50;92.40
5705;DHT22;2877;48.238;11.160;2022-10-17T14:16:36;22.50;92.00
5705;DHT22;2877;48.238;11.160;2022-10-17T14:19:04;22.40;91.80
5705;DHT22;2877;48.238;11.160;2022-10-17T14:21:29;22.40;92.20
5705;DHT22;2877;48.238;11.160;2022-10-17T14:26:51;22.40;91.70
5705;DHT22;2877;48.238;11.160;2022-10-17T14:29:49;22.40;92.10
5705;DHT22;2877;48.238;11.160;2022-10-17T14:32:14;22.50;90.60
5705;DHT22;2877;48.238;11.160;2022-10-17T14:34:42;22.40;90.50
5705;DHT22;2877;48.238;11.160;2022-10-17T14:37:18;22.40;91.80
5705;DHT22;2877;48.238;11.160;2022-10-17T14:39:50;22.40;91.70
5705;DHT22;2877;48.238;11.160;2022-10-17T14:42:21;22.30;91.60
5705;DHT22;2877;48.238;11.160;2022-10-17T14:44:49;22.30;92.20
5705;DHT22;2877;48.238;11.160;2022-10-17T14:47:19;22.20;92.30
5705;DHT22;2877;48.238;11.160;2022-10-17T14:49:49;22.20;92.50
5705;DHT22;2877;48.238;11.160;2022-10-17T14:54:41;22.20;92.60
5705;DHT22;2877;48.238;11.160;2022-10-17T14:59:46;22.00;93.70
5705;DHT22;2877;48.238;11.160;2022-10-17T15:02:12;22.00;93.90
5705;DHT22;2877;48.238;11.160;2022-10-17T15:04:38;21.90;94.00
5705;DHT22;2877;48.238;11.160;2022-10-17T15:07:03;21.80;93.60
5705;DHT22;2877;48.238;11.160;2022-10-17T15:09:29;21.70;94.40
5705;DHT22;2877;48.238;11.160;2022-10-17T15:11:59;21.60;94.20
5705;DHT22;2877;48.238;11.160;2022-10-17T15:14:27;21.50;94.80
5705;DHT22;2877;48.238;11.160;2022-10-17T15:16:53;21.40;94.90
5705;DHT22;2877;48.238;11.160;2022-10-17T15:19:18;21.30;96.20
5705;DHT22;2877;48.238;11.160;2022-10-17T15:21:44;21.10;96.30
5705;DHT22;2877;48.238;11.160;2022-10-17T15:24:09;21.00;97.00
5705;DHT22;2877;48.238;11.160;2022-10-17T15:26:35;20.80;97.60
5705;DHT22;2877;48.238;11.160;2022-10-17T15:29:01;20.70;98.20
5705;DHT22;2877;48.238;11.160;2022-10-17T15:31:28;20.50;98.70
5705;DHT22;2877;48.238;11.160;2022-10-17T15:33:55;20.40;99.90
5705;DHT22;2877;48.238;11.160;2022-10-17T15:36:29;20.20;99.90
5705;DHT22;2877;48.238;11.160;2022-10-17T15:38:58;20.10;99.90
5705;DHT22;2877;48.238;11.160;2022-10-17T15:41:26;20.00;99.90
5705;DHT22;2877;48.238;11.160;2022-10-17T15:43:52;19.80;99.90
5705;DHT22;2877;48.238;11.160;2022-10-17T15:46:22;19.70;99.90
5705;DHT22;2877;48.238;11.160;2022-10-17T15:48:49;19.60;99.90
5705;DHT22;2877;48.238;11.160;2022-10-17T15:51:16;19.50;99.90
5705;DHT22;2877;48.238;11.160;2022-10-17T15:53:42;19.30;99.90
5705;DHT22;2877;48.238;11.160;2022-10-17T15:56:37;19.20;99.90
5705;DHT22;2877;48.238;11.160;2022-10-17T15:59:02;19.00;99.90
5705;DHT22;2877;48.238;11.160;2022-10-17T16:01:29;18.90;99.90
5705;DHT22;2877;48.238;11.160;2022-10-17T16:03:56;18.80;99.90
5705;DHT22;2877;48.238;11.160;2022-10-17T16:06:22;18.60;99.90
5705;DHT22;2877;48.238;11.160;2022-10-17T16:08:49;18.50;99.90
5705;DHT22;2877;48.238;11.160;2022-10-17T16:11:43;18.30;99.90
5705;DHT22;2877;48.238;11.160;2022-10-17T16:14:12;18.10;99.90
5705;DHT22;2877;48.238;11.160;2022-10-17T16:16:38;18.00;99.90
5705;DHT22;2877;48.238;11.160;2022-10-17T16:19:03;17.80;99.90
5705;DHT22;2877;48.238;11.160;2022-10-17T16:21:32;17.60;99.90
5705;DHT22;2877;48.238;11.160;2022-10-17T16:23:59;17.50;99.90
5705;DHT22;2877;48.238;11.160;2022-10-17T16:26:25;17.30;99.90
5705;DHT22;2877;48.238;11.160;2022-10-17T16:28:51;17.30;99.90
5705;DHT22;2877;48.238;11.160;2022-10-17T16:31:21;17.10;99.90
5705;DHT22;2877;48.238;11.160;2022-10-17T16:33:50;17.00;99.90
5705;DHT22;2877;48.238;11.160;2022-10-17T16:36:16;16.80;99.90
5705;DHT22;2877;48.238;11.160;2022-10-17T16:38:41;16.70;99.90
5705;DHT22;2877;48.238;11.160;2022-10-17T16:41:29;16.60;99.90
5705;DHT22;2877;48.238;11.160;2022-10-17T16:43:57;16.50;99.90
5705;DHT22;2877;48.238;11.160;2022-10-17T16:46:24;16.40;99.90
5705;DHT22;2877;48.238;11.160;2022-10-17T16:48:50;16.30;99.90
5705;DHT22;2877;48.238;11.160;2022-10-17T16:51:17;16.20;99.90
5705;DHT22;2877;48.238;11.160;2022-10-17T16:53:47;16.20;99.90
5705;DHT22;2877;48.238;11.160;2022-10-17T16:56:16;16.10;99.90
5705;DHT22;2877;48.238;11.160;2022-10-17T16:58:42;16.10;99.90
5705;DHT22;2877;48.238;11.160;2022-10-17T17:01:20;16.00;99.90
5705;DHT22;2877;48.238;11.160;2022-10-17T17:03:48;15.90;99.90
5705;DHT22;2877;48.238;11.160;2022-10-17T17:06:17;15.80;99.90
5705;DHT22;2877;48.238;11.160;2022-10-17T17:08:43;15.70;99.90
5705;DHT22;2877;48.238;11.160;2022-10-17T17:11:10;15.60;99.90
5705;DHT22;2877;48.238;11.160;2022-10-17T17:13:37;15.50;99.90
5705;DHT22;2877;48.238;11.160;2022-10-17T17:16:08;15.40;99.90
5705;DHT22;2877;48.238;11.160;2022-10-17T17:18:35;15.30;99.90
5705;DHT22;2877;48.238;11.160;2022-10-17T17:21:02;15.30;99.90
5705;DHT22;2877;48.238;11.160;2022-10-17T17:23:29;15.20;99.90
5705;DHT22;2877;48.238;11.160;2022-10-17T17:26:07;15.10;99.90
5705;DHT22;2877;48.238;11.160;2022-10-17T17:28:33;15.00;99.90
5705;DHT22;2877;48.238;11.160;2022-10-17T17:31:00;15.00;99.90
5705;DHT22;2877;48.238;11.160;2022-10-17T17:33:26;14.90;99.90
5705;DHT22;2877;48.238;11.160;2022-10-17T17:35:57;14.80;99.90
5705;DHT22;2877;48.238;11.160;2022-10-17T17:38:24;14.80;99.90
5705;DHT22;2877;48.238;11.160;2022-10-17T17:40:50;14.70;99.90
5705;DHT22;2877;48.238;11.160;2022-10-17T17:43:17;14.70;99.90
5705;DHT22;2877;48.238;11.160;2022-10-17T17:45:43;14.70;99.90
5705;DHT22;2877;48.238;11.160;2022-10-17T17:48:08;14.60;99.90
5705;DHT22;2877;48.238;11.160;2022-10-17T17:50:38;14.60;99.90
5705;DHT22;2877;48.238;11.160;2022-10-17T17:53:05;14.60;99.90
5705;DHT22;2877;48.238;11.160;2022-10-17T17:55:32;14.60;99.90
5705;DHT22;2877;48.238;11.160;2022-10-17T17:57:58;14.70;99.90
5705;DHT22;2877;48.238;11.160;2022-10-17T18:00:24;14.70;99.90
5705;DHT22;2877;48.238;11.160;2022-10-17T18:02:49;14.70;99.90
5705;DHT22;2877;48.238;11.160;2022-10-17T18:05:15;14.70;99.90
5705;DHT22;2877;48.238;11.160;2022-10-17T18:07:41;14.80;99.90